Time;durP1;ratioP1;P1;durP2;ratioP2;P2;SDS_P1;SDS_P2;PMS_P1;PMS_P2;Temp;Humidity;BMP_temperature;BMP_pressure;BME280_temperature;BME280_humidity;BME280_pressure;Samples;Min_cycle;Max_cycle;Signal;HPM_P1;HPM_P2
2021/10/15 00:00:55;;;;;;;13.07;8.20;;;;;;;11.91;65.22;100134.50;5046104;28;20053;-70
2021/10/15 00:03:22;;;;;;;13.27;9.15;;;;;;;11.94;65.05;100135.09;5046086;28;20382;-71
2021/10/15 00:05:50;;;;;;;14.13;8.77;;;;;;;11.96;65.18;100127.88;5044884;28;20060;-72
2021/10/15 00:08:17;;;;;;;13.98;8.52;;;;;;;11.97;64.94;100126.88;5046371;28;20049;-70
2021/10/15 00:10:44;;;;;;;16.60;10.15;;;;;;;11.95;65.11;100120.88;5045834;28;20053;-71
2021/10/15 00:13:11;;;;;;;16.17;9.52;;;;;;;11.94;65.01;100113.91;5045111;28;20044;-72
2021/10/15 00:15:38;;;;;;;17.95;9.43;;;;;;;11.94;65.14;100116.56;5046776;28;20056;-72
2021/10/15 00:18:04;;;;;;;17.25;12.20;;;;;;;11.97;65.17;100118.94;5046318;28;20045;-71
2021/10/15 00:20:34;;;;;;;19.17;11.38;;;;;;;11.96;65.38;100119.09;5045688;28;20347;-71
2021/10/15 00:23:02;;;;;;;18.92;11.98;;;;;;;11.97;65.42;100116.28;5046851;28;20041;-70
2021/10/15 00:25:29;;;;;;;20.65;11.65;;;;;;;12.01;65.31;100115.09;5045988;28;20699;-70
2021/10/15 00:27:56;;;;;;;23.17;12.82;;;;;;;12.04;65.49;100114.00;5045077;28;20045;-69
2021/10/15 00:30:23;;;;;;;21.27;12.88;;;;;;;12.09;65.41;100113.66;5045526;28;20060;-70
2021/10/15 00:32:50;;;;;;;22.80;13.43;;;;;;;12.13;65.17;100112.41;5046169;28;20052;-72
2021/10/15 00:35:17;;;;;;;20.40;12.38;;;;;;;12.18;65.16;100111.09;5045066;28;20052;-71
2021/10/15 00:37:48;;;;;;;25.23;14.20;;;;;;;12.19;65.23;100118.06;5043252;28;20049;-70
2021/10/15 00:40:17;;;;;;;26.35;14.95;;;;;;;12.20;65.18;100116.25;5045346;28;20048;-73
2021/10/15 00:42:44;;;;;;;27.83;14.30;;;;;;;12.22;65.26;100109.84;5044660;28;20045;-71
2021/10/15 00:45:11;;;;;;;27.52;16.77;;;;;;;12.26;65.02;100105.16;5045149;28;20053;-71
2021/10/15 00:47:38;;;;;;;32.30;16.52;;;;;;;12.31;65.11;100102.13;5045630;28;20053;-72
2021/10/15 00:50:06;;;;;;;25.60;15.95;;;;;;;12.32;65.14;100094.06;5051719;28;20040;-72
2021/10/15 00:52:34;;;;;;;29.50;17.77;;;;;;;12.35;65.06;100090.31;5045374;28;20044;-72
2021/10/15 00:55:01;;;;;;;31.35;18.23;;;;;;;12.36;65.01;100082.25;5045133;28;20061;-72
2021/10/15 00:57:29;;;;;;;34.65;17.73;;;;;;;12.40;65.09;100083.66;5044271;28;20064;-71
2021/10/15 00:59:59;;;;;;;32.38;19.50;;;;;;;12.41;65.12;100082.72;5045787;28;20056;-71
2021/10/15 01:02:26;;;;;;;32.38;19.27;;;;;;;12.44;64.92;100086.91;5045439;28;20469;-70
2021/10/15 01:04:53;;;;;;;32.85;19.92;;;;;;;12.46;65.04;100085.00;5044672;28;20057;-72
2021/10/15 01:07:20;;;;;;;39.67;21.95;;;;;;;12.45;64.99;100079.81;5042988;28;20098;-72
2021/10/15 01:09:47;;;;;;;33.05;19.92;;;;;;;12.48;64.98;100083.06;5044875;28;20060;-72
2021/10/15 01:12:16;;;;;;;31.42;19.65;;;;;;;12.54;64.97;100087.00;5045185;28;20045;-71
2021/10/15 01:14:44;;;;;;;34.85;19.88;;;;;;;12.52;65.04;100080.97;5044820;28;20105;-71
2021/10/15 01:17:11;;;;;;;39.53;22.98;;;;;;;12.50;65.11;100075.81;5045307;28;20051;-71
2021/10/15 01:19:38;;;;;;;34.70;21.13;;;;;;;12.54;65.08;100076.41;5044306;28;20052;-72
2021/10/15 01:22:08;;;;;;;39.33;22.80;;;;;;;12.55;65.13;100072.75;5046294;28;20053;-72
2021/10/15 01:24:36;;;;;;;34.88;20.77;;;;;;;12.55;65.10;100076.28;5045518;28;20064;-72
2021/10/15 01:27:05;;;;;;;43.35;22.58;;;;;;;12.57;65.10;100078.81;5045495;28;20045;-71
2021/10/15 01:29:32;;;;;;;37.90;22.52;;;;;;;12.59;65.03;100074.22;5045456;28;20053;-72
2021/10/15 01:31:59;;;;;;;45.40;24.73;;;;;;;12.60;65.14;100070.56;5045340;28;20539;-71
2021/10/15 01:34:26;;;;;;;43.92;24.92;;;;;;;12.61;65.19;100069.63;5045383;28;20045;-70
2021/10/15 01:36:53;;;;;;;45.63;25.58;;;;;;;12.57;65.23;100071.69;5045406;28;20288;-71
2021/10/15 01:39:21;;;;;;;42.70;24.63;;;;;;;12.57;65.33;100062.91;5048242;28;20171;-73
2021/10/15 01:41:49;;;;;;;41.42;21.95;;;;;;;12.60;65.17;100076.72;5049349;28;20041;-71
2021/10/15 01:44:16;;;;;;;50.53;24.42;;;;;;;12.63;65.19;100067.66;5055787;28;20053;-72
2021/10/15 01:46:43;;;;;;;41.63;23.15;;;;;;;12.64;65.11;100069.38;5056166;28;20063;-71
2021/10/15 01:49:10;;;;;;;43.38;24.85;;;;;;;12.60;65.44;100067.91;5057457;28;20045;-71
2021/10/15 01:51:37;;;;;;;42.40;24.15;;;;;;;12.65;65.26;100070.19;5058034;28;20048;-72
2021/10/15 01:54:05;;;;;;;43.67;26.58;;;;;;;12.67;65.25;100073.56;5057136;28;20105;-73
2021/10/15 01:56:33;;;;;;;38.78;21.85;;;;;;;12.68;65.09;100072.59;5057610;28;20037;-71
2021/10/15 01:59:00;;;;;;;36.35;22.00;;;;;;;12.68;65.14;100062.00;5057347;28;20053;-72
2021/10/15 02:01:27;;;;;;;44.40;25.88;;;;;;;12.71;65.08;100067.00;5048950;28;20052;-70
2021/10/15 02:03:54;;;;;;;42.08;24.98;;;;;;;12.71;65.10;100064.38;5047766;28;20064;-70
2021/10/15 02:06:21;;;;;;;38.28;20.60;;;;;;;12.71;64.93;100065.22;5045154;28;20049;-70
2021/10/15 02:08:48;;;;;;;33.53;21.17;;;;;;;12.75;65.03;100050.75;5047673;28;20045;-70
2021/10/15 02:11:15;;;;;;;31.60;20.65;;;;;;;12.77;65.01;100050.63;5046500;28;20052;-71
2021/10/15 02:13:44;;;;;;;33.25;20.85;;;;;;;12.75;65.08;100048.09;5046648;28;20056;-70
2021/10/15 02:16:10;;;;;;;32.78;20.63;;;;;;;12.77;64.95;100051.44;5046565;28;20053;-70
2021/10/15 02:18:37;;;;;;;33.95;19.63;;;;;;;12.81;64.85;100052.84;5047190;28;20045;-71
2021/10/15 02:21:04;;;;;;;30.10;19.70;;;;;;;12.80;64.96;100051.19;5046315;28;20079;-71
2021/10/15 02:23:32;;;;;;;30.65;20.80;;;;;;;12.82;64.74;100053.72;5044807;28;20370;-71
2021/10/15 02:25:58;;;;;;;37.17;22.95;;;;;;;12.81;64.73;100054.69;5046539;28;20045;-70
2021/10/15 02:28:25;;;;;;;31.10;20.30;;;;;;;12.82;64.67;100054.56;5046116;28;20053;-70
2021/10/15 02:30:54;;;;;;;31.40;20.95;;;;;;;12.84;64.85;100051.78;5045066;28;20071;-71
2021/10/15 02:33:21;;;;;;;31.30;20.27;;;;;;;12.84;64.60;100045.63;5044730;28;20060;-70
2021/10/15 02:35:48;;;;;;;31.48;17.15;;;;;;;12.86;64.84;100049.81;5042572;28;20056;-69
2021/10/15 02:38:15;;;;;;;27.83;18.95;;;;;;;12.86;64.67;100043.69;5045610;28;20049;-71
2021/10/15 02:40:41;;;;;;;28.63;18.30;;;;;;;12.86;64.54;100049.81;5045986;28;20049;-72
2021/10/15 02:43:08;;;;;;;24.33;17.02;;;;;;;12.82;64.95;100054.56;5047404;28;20056;-72
2021/10/15 02:45:37;;;;;;;28.38;18.02;;;;;;;12.81;64.96;100052.84;5048586;28;20064;-72
2021/10/15 02:48:06;;;;;;;27.35;16.85;;;;;;;12.82;65.05;100045.78;5048850;28;20041;-71
2021/10/15 02:50:33;;;;;;;28.88;18.17;;;;;;;12.83;64.78;100044.78;5048855;28;20052;-71
2021/10/15 02:53:00;;;;;;;23.75;16.48;;;;;;;12.84;64.93;100043.81;5047287;28;20041;-73
2021/10/15 02:55:27;;;;;;;27.00;17.02;;;;;;;12.88;64.79;100036.44;5048076;28;20049;-72
2021/10/15 02:57:54;;;;;;;26.15;13.48;;;;;;;12.91;64.61;100046.75;5047687;28;20048;-71
2021/10/15 03:00:21;;;;;;;29.40;15.27;;;;;;;12.92;64.62;100040.50;5051215;28;20145;-69
2021/10/15 03:02:48;;;;;;;23.60;14.25;;;;;;;12.94;64.50;100039.38;5048216;28;20052;-69
2021/10/15 03:05:16;;;;;;;25.23;16.52;;;;;;;12.91;64.70;100041.47;5046677;28;20053;-71
2021/10/15 03:07:43;;;;;;;23.75;14.85;;;;;;;12.92;64.66;100043.16;5045453;28;20719;-72
2021/10/15 03:10:10;;;;;;;25.20;14.93;;;;;;;12.94;64.33;100047.34;5048082;28;20041;-71
2021/10/15 03:12:37;;;;;;;22.20;13.52;;;;;;;12.96;64.56;100048.06;5047060;28;20093;-71
2021/10/15 03:15:06;;;;;;;23.67;15.27;;;;;;;12.95;64.38;100038.44;5047352;28;20061;-71
2021/10/15 03:17:33;;;;;;;22.25;15.05;;;;;;;12.95;64.56;100041.09;5027978;28;20110;-71
2021/10/15 03:20:00;;;;;;;20.13;14.68;;;;;;;12.97;64.35;100039.13;5046666;28;20056;-70
2021/10/15 03:22:28;;;;;;;22.92;14.25;;;;;;;12.97;64.44;100028.53;5048080;28;20049;-73
2021/10/15 03:24:55;;;;;;;24.75;14.65;;;;;;;12.97;64.35;100030.34;5048249;28;20060;-72
2021/10/15 03:27:22;;;;;;;23.77;16.38;;;;;;;12.99;64.50;100028.41;5045152;28;20053;-72
2021/10/15 03:29:50;;;;;;;25.73;16.77;;;;;;;12.99;64.59;100025.75;5048569;28;20048;-72
2021/10/15 03:32:17;;;;;;;21.00;14.50;;;;;;;12.97;64.61;100023.22;5048325;28;20503;-72
2021/10/15 03:34:43;;;;;;;21.00;15.18;;;;;;;12.97;64.63;100031.19;5046696;28;20412;-73
2021/10/15 03:37:10;;;;;;;23.58;17.45;;;;;;;12.96;64.55;100033.97;5045196;28;20070;-71
2021/10/15 03:39:39;;;;;;;22.33;14.63;;;;;;;12.97;64.43;100028.53;5046694;28;20044;-71
2021/10/15 03:42:06;;;;;;;19.50;13.65;;;;;;;12.99;64.45;100028.41;5050206;28;20049;-71
2021/10/15 03:44:32;;;;;;;20.98;14.25;;;;;;;13.03;64.46;100034.28;5046938;28;20057;-71
2021/10/15 03:46:59;;;;;;;22.02;14.68;;;;;;;13.02;64.36;100033.44;5046477;28;20756;-69
2021/10/15 03:49:26;;;;;;;27.42;16.05;;;;;;;13.01;64.43;100026.47;5045950;28;20382;-70
2021/10/15 03:51:53;;;;;;;22.45;14.73;;;;;;;13.04;64.42;100031.50;5045840;28;20045;-70
2021/10/15 03:54:20;;;;;;;24.60;16.52;;;;;;;13.06;64.41;100026.06;5046097;28;20057;-70
2021/10/15 03:56:48;;;;;;;27.65;14.82;;;;;;;13.03;64.48;100027.16;5045796;28;20044;-70
2021/10/15 03:59:15;;;;;;;26.23;15.10;;;;;;;13.03;64.45;100021.84;5046133;28;20425;-70
2021/10/15 04:01:42;;;;;;;24.77;14.68;;;;;;;13.02;64.52;100028.16;5044698;28;20045;-71
2021/10/15 04:04:09;;;;;;;23.80;15.27;;;;;;;13.00;64.65;100030.09;5044900;28;20045;-70
2021/10/15 04:06:36;;;;;;;25.10;15.25;;;;;;;13.03;64.47;100029.81;5044150;28;20044;-73
2021/10/15 04:09:03;;;;;;;27.95;17.85;;;;;;;13.04;64.37;100031.50;5044516;28;20045;-71
2021/10/15 04:11:30;;;;;;;26.48;17.67;;;;;;;13.06;64.46;100021.59;5045449;28;20052;-71
2021/10/15 04:13:59;;;;;;;35.22;21.30;;;;;;;13.06;64.53;100029.56;5045448;28;20045;-70
2021/10/15 04:16:26;;;;;;;26.48;18.48;;;;;;;13.06;64.45;100018.13;5045633;28;20037;-70
2021/10/15 04:18:53;;;;;;;28.55;19.27;;;;;;;13.06;64.40;100023.41;5045252;28;20045;-72
2021/10/15 04:21:20;;;;;;;37.03;22.13;;;;;;;13.04;64.52;100018.25;5045724;28;20413;-72
2021/10/15 04:23:46;;;;;;;31.92;23.73;;;;;;;13.04;64.54;100020.06;5046396;28;20055;-72
2021/10/15 04:26:13;;;;;;;31.35;19.70;;;;;;;13.03;64.62;100019.22;5047739;28;20172;-74
2021/10/15 04:28:40;;;;;;;26.23;18.13;;;;;;;13.05;64.60;100017.25;5045819;28;20041;-73
2021/10/15 04:31:08;;;;;;;27.15;17.60;;;;;;;13.11;64.49;100015.91;5045284;28;20044;-71
2021/10/15 04:33:35;;;;;;;27.85;17.52;;;;;;;13.13;64.25;100020.09;5045983;28;20067;-71
2021/10/15 04:36:02;;;;;;;22.80;15.48;;;;;;;13.16;64.38;100005.72;5043900;28;20417;-72
2021/10/15 04:38:29;;;;;;;27.40;19.83;;;;;;;13.16;64.31;100009.22;5045463;28;20060;-72
2021/10/15 04:40:56;;;;;;;26.67;18.00;;;;;;;13.20;64.12;100009.81;5045635;28;20037;-72
2021/10/15 04:43:23;;;;;;;28.92;17.67;;;;;;;13.22;64.18;100007.00;5045087;28;20053;-73
2021/10/15 04:45:50;;;;;;;27.83;18.33;;;;;;;13.22;64.14;100002.53;5045678;28;20076;-70
2021/10/15 04:48:19;;;;;;;25.48;19.27;;;;;;;13.25;64.11;100002.25;5044999;28;20045;-71
2021/10/15 04:50:45;;;;;;;24.77;18.23;;;;;;;13.25;64.08;99998.78;5056805;28;20049;-74
2021/10/15 04:53:12;;;;;;;28.42;16.98;;;;;;;13.28;64.06;100002.00;5046599;28;20492;-73
2021/10/15 04:55:39;;;;;;;27.85;17.58;;;;;;;13.32;63.96;100002.59;5044944;28;20053;-73
2021/10/15 04:58:06;;;;;;;29.40;18.73;;;;;;;13.30;63.98;100002.69;5044193;28;20045;-72
2021/10/15 05:00:36;;;;;;;30.40;19.48;;;;;;;13.35;63.92;100005.00;5044700;28;20519;-73
2021/10/15 05:03:03;;;;;;;28.48;18.05;;;;;;;13.39;63.75;99998.44;5044957;28;20775;-72
2021/10/15 05:05:32;;;;;;;27.42;18.45;;;;;;;13.37;63.87;99992.44;5045256;28;20592;-72
2021/10/15 05:07:59;;;;;;;29.55;20.60;;;;;;;13.35;63.85;100002.34;5049750;28;20524;-73
2021/10/15 05:10:28;;;;;;;25.42;16.40;;;;;;;13.34;63.76;99995.34;5046495;28;20049;-73
2021/10/15 05:12:55;;;;;;;28.38;19.63;;;;;;;13.34;63.79;100001.50;5045756;28;20041;-71
2021/10/15 05:15:22;;;;;;;26.65;17.27;;;;;;;13.35;63.83;100002.34;5045948;28;20079;-71
2021/10/15 05:17:49;;;;;;;29.85;18.80;;;;;;;13.34;63.81;99998.84;5044916;28;20052;-72
2021/10/15 05:20:19;;;;;;;26.42;16.92;;;;;;;13.39;63.62;100001.06;5044440;28;20049;-73
2021/10/15 05:22:47;;;;;;;27.17;18.67;;;;;;;13.41;63.63;99993.81;5045894;28;20049;-77
2021/10/15 05:25:15;;;;;;;24.20;16.42;;;;;;;13.43;63.63;99989.22;5052806;28;20044;-74
2021/10/15 05:27:42;;;;;;;28.40;17.70;;;;;;;13.46;63.48;99993.44;5049473;28;20049;-72
2021/10/15 05:30:10;;;;;;;25.83;17.05;;;;;;;13.49;63.35;99993.16;5044672;28;20041;-72
2021/10/15 05:32:39;;;;;;;26.20;19.25;;;;;;;13.49;63.58;99994.00;5044665;28;20049;-71
2021/10/15 05:35:07;;;;;;;33.22;20.50;;;;;;;13.52;63.29;99991.06;5044611;28;20053;-70
2021/10/15 05:37:34;;;;;;;40.42;24.33;;;;;;;13.54;63.19;99986.47;5043511;28;20047;-71
2021/10/15 05:40:04;;;;;;;37.53;23.38;;;;;;;13.55;63.36;99993.44;5045101;28;20049;-70
2021/10/15 05:42:30;;;;;;;37.08;20.77;;;;;;;13.58;63.04;99992.34;5044121;28;20060;-72
2021/10/15 05:44:57;;;;;;;34.03;21.75;;;;;;;13.62;63.13;99992.91;5043738;28;20044;-72
2021/10/15 05:47:25;;;;;;;32.15;20.08;;;;;;;13.65;62.94;99995.25;5044868;28;20137;-70
2021/10/15 05:49:52;;;;;;;29.23;19.30;;;;;;;13.66;63.02;100002.25;5041001;28;20049;-71
2021/10/15 05:52:28;;;;;;;22.95;15.40;;;;;;;13.70;62.97;100003.66;5043949;28;20045;-70
2021/10/15 05:54:58;;;;;;;24.50;17.25;;;;;;;13.69;62.93;100007.31;5040716;28;20095;-72
2021/10/15 05:58:49;;;;;;;25.98;17.00;;;;;;;13.68;62.85;100005.63;5041834;28;20142;-72
2021/10/15 06:00:21;;;;;;;28.70;18.63;;;;;;;13.73;62.78;99998.09;5043341;28;20485;-73
2021/10/15 06:02:48;;;;;;;29.60;16.73;;;;;;;13.73;62.77;99995.44;5043008;28;20087;-73
2021/10/15 06:16:29;;;;;;;22.05;16.67;;;;;;;13.89;62.25;99990.41;4906697;29;20059;-71
2021/10/15 06:18:58;;;;;;;22.15;13.35;;;;;;;13.90;62.31;99992.09;4908451;29;20048;-72
2021/10/15 06:21:28;;;;;;;25.80;17.55;;;;;;;13.97;62.04;100005.63;4908469;29;20107;-76
2021/10/15 06:23:55;;;;;;;25.88;16.38;;;;;;;13.95;62.05;99997.84;4908152;29;20725;-72
2021/10/15 06:26:21;;;;;;;22.00;14.88;;;;;;;14.01;61.89;99995.56;4907866;29;20436;-71
2021/10/15 06:28:50;;;;;;;20.20;14.98;;;;;;;14.01;61.82;99990.25;4908149;29;20059;-72
2021/10/15 06:31:17;;;;;;;19.65;14.52;;;;;;;14.06;61.82;99991.53;4907814;29;20153;-73
2021/10/15 06:33:44;;;;;;;22.90;15.60;;;;;;;14.12;61.49;99990.97;4909601;29;20048;-74
2021/10/15 06:36:12;;;;;;;23.67;15.40;;;;;;;14.13;61.59;99994.47;4908263;29;20086;-73
2021/10/15 06:38:40;;;;;;;22.40;15.80;;;;;;;14.11;61.43;99991.09;4907089;29;20048;-72
2021/10/15 06:41:07;;;;;;;23.45;14.68;;;;;;;14.08;61.55;99988.72;4916679;29;20083;-71
2021/10/15 06:43:34;;;;;;;21.92;14.18;;;;;;;14.10;61.43;99995.59;4910062;29;20052;-74
2021/10/15 06:46:03;;;;;;;19.40;14.45;;;;;;;14.11;61.42;99991.94;4988341;28;20046;-71
2021/10/15 06:48:32;;;;;;;22.58;15.13;;;;;;;14.12;61.23;99992.78;5003874;28;20050;-71
2021/10/15 06:50:59;;;;;;;20.52;13.65;;;;;;;14.09;61.25;99999.22;5026254;28;20053;-75
2021/10/15 06:53:26;;;;;;;23.08;15.50;;;;;;;14.09;61.36;99995.72;5043670;28;20091;-72
2021/10/15 06:55:53;;;;;;;20.13;12.68;;;;;;;14.08;61.30;99983.41;5046128;28;20534;-73
2021/10/15 06:58:20;;;;;;;21.92;13.77;;;;;;;14.13;61.18;99986.47;5044081;28;20188;-74
2021/10/15 07:00:47;;;;;;;19.42;13.65;;;;;;;14.19;60.96;99980.63;5047652;28;20052;-73
2021/10/15 07:03:17;;;;;;;22.33;13.25;;;;;;;14.23;60.94;99973.22;5044906;28;20051;-72
2021/10/15 07:05:45;;;;;;;19.35;12.40;;;;;;;14.34;60.57;99976.53;5044784;28;20551;-73
2021/10/15 07:08:11;;;;;;;20.58;13.55;;;;;;;14.47;60.43;99970.09;5044717;28;20057;-74
2021/10/15 07:10:39;;;;;;;17.65;11.15;;;;;;;14.57;60.03;99973.56;5046649;28;20045;-76
2021/10/15 07:13:06;;;;;;;16.63;11.25;;;;;;;14.63;59.86;99978.31;5048629;28;20044;-74
2021/10/15 07:15:33;;;;;;;21.23;15.02;;;;;;;14.65;59.80;99972.88;5044231;28;20068;-73
2021/10/15 07:18:01;;;;;;;17.88;12.25;;;;;;;14.67;59.87;99982.38;5044443;28;20056;-74
2021/10/15 07:20:30;;;;;;;20.20;13.70;;;;;;;14.78;59.55;99981.34;5044443;28;20060;-74
2021/10/15 07:22:57;;;;;;;21.13;12.27;;;;;;;14.87;59.33;99990.28;5044759;28;20409;-74
2021/10/15 07:25:24;;;;;;;19.60;14.18;;;;;;;15.02;58.93;99993.31;5043939;28;20049;-75
2021/10/15 07:27:51;;;;;;;17.80;11.95;;;;;;;15.05;58.98;99987.69;5043704;28;20172;-74
2021/10/15 07:30:18;;;;;;;19.17;11.98;;;;;;;15.16;58.64;99987.53;5042169;28;20045;-74
2021/10/15 07:32:48;;;;;;;18.85;12.73;;;;;;;15.30;58.34;99988.84;5044650;28;20071;-73
2021/10/15 07:35:15;;;;;;;18.58;12.10;;;;;;;15.46;57.91;99997.00;5047811;28;20049;-71
2021/10/15 07:37:43;;;;;;;19.02;13.07;;;;;;;15.40;57.82;99980.81;5042108;28;20061;-74
2021/10/15 07:40:11;;;;;;;18.13;12.20;;;;;;;15.52;57.76;99986.75;5050836;28;20055;-75
2021/10/15 07:42:39;;;;;;;18.08;13.00;;;;;;;15.70;57.46;99978.78;5052311;28;20060;-74
2021/10/15 07:45:07;;;;;;;18.77;13.23;;;;;;;15.82;57.05;99982.94;5045407;28;20140;-72
2021/10/15 07:47:34;;;;;;;19.58;14.00;;;;;;;15.85;56.81;99983.47;5060879;28;20268;-75
2021/10/15 07:50:01;;;;;;;19.42;12.88;;;;;;;15.87;56.63;99983.31;5053023;28;20041;-76
2021/10/15 07:52:28;;;;;;;16.38;11.88;;;;;;;15.96;56.51;99990.38;5044700;28;20072;-76
2021/10/15 07:54:57;;;;;;;14.88;12.65;;;;;;;15.96;56.55;99990.38;5044013;28;20048;-73
2021/10/15 07:57:24;;;;;;;18.15;13.43;;;;;;;15.91;56.55;99984.69;5046654;28;20060;-77
2021/10/15 07:59:51;;;;;;;14.98;11.25;;;;;;;15.96;56.51;99987.72;5060987;28;20051;-76
2021/10/15 08:02:18;;;;;;;18.80;13.27;;;;;;;16.04;56.60;99993.16;5050041;28;20044;-72
2021/10/15 08:04:45;;;;;;;20.88;12.20;;;;;;;16.07;56.23;99978.66;5053715;28;20041;-76
2021/10/15 08:07:12;;;;;;;20.75;11.82;;;;;;;16.12;56.06;99981.72;5056663;28;20056;-77
2021/10/15 08:09:39;;;;;;;16.90;10.77;;;;;;;16.20;55.90;99987.09;5055007;28;20041;-73
2021/10/15 08:12:08;;;;;;;17.17;11.05;;;;;;;16.15;55.80;99976.09;5051189;28;20049;-77
2021/10/15 08:14:35;;;;;;;21.50;12.75;;;;;;;16.12;55.77;99984.38;5053258;28;20045;-75
2021/10/15 08:17:02;;;;;;;19.73;13.40;;;;;;;16.21;55.73;99979.94;5050385;28;20107;-76
2021/10/15 08:19:29;;;;;;;18.90;12.88;;;;;;;16.33;55.60;99973.38;5046783;28;20064;-74
2021/10/15 08:21:56;;;;;;;21.17;13.77;;;;;;;16.35;55.28;99981.19;5044699;28;20496;-74
2021/10/15 08:24:24;;;;;;;17.77;13.88;;;;;;;16.34;55.26;99977.72;5044926;28;20048;-75
2021/10/15 08:26:51;;;;;;;17.35;11.85;;;;;;;16.25;55.49;99973.31;5043650;28;20057;-76
2021/10/15 08:29:19;;;;;;;15.20;10.77;;;;;;;16.34;55.29;99976.88;5046503;28;20064;-76
2021/10/15 08:31:46;;;;;;;17.20;12.88;;;;;;;16.34;55.26;99968.88;5048094;28;20692;-73
2021/10/15 08:34:13;;;;;;;18.45;13.63;;;;;;;16.36;54.87;99974.91;5046479;28;20076;-74
2021/10/15 08:36:41;;;;;;;20.05;15.30;;;;;;;16.47;55.05;99969.31;5043293;28;20053;-73
2021/10/15 08:39:10;;;;;;;18.90;13.85;;;;;;;16.62;54.59;99964.25;5050630;28;20127;-76
2021/10/15 08:41:37;;;;;;;17.67;12.05;;;;;;;16.68;54.40;99954.78;5025623;28;20095;-76
2021/10/15 08:44:04;;;;;;;20.15;16.27;;;;;;;16.68;54.18;99962.78;5045173;28;20059;-76
2021/10/15 08:46:33;;;;;;;17.80;14.02;;;;;;;16.63;54.65;99964.06;5044423;28;20048;-76
2021/10/15 08:48:59;;;;;;;18.45;11.63;;;;;;;16.63;54.37;99964.06;5044724;28;20055;-76
2021/10/15 08:51:26;;;;;;;17.55;13.15;;;;;;;16.69;54.48;99956.44;5044782;28;20051;-76
2021/10/15 08:53:55;;;;;;;17.77;13.13;;;;;;;16.69;54.12;99959.09;5044380;28;20056;-74
2021/10/15 08:56:24;;;;;;;16.35;12.45;;;;;;;16.57;54.44;99958.56;5043641;28;20691;-75
2021/10/15 08:58:58;;;;;;;17.50;13.32;;;;;;;16.59;54.65;99951.22;5043208;28;20396;-74
2021/10/15 09:01:27;;;;;;;16.77;12.10;;;;;;;16.59;54.82;99957.38;5045959;28;20049;-74
2021/10/15 09:04:00;;;;;;;19.65;12.73;;;;;;;16.64;54.60;99948.94;5046462;28;20359;-76
2021/10/15 09:06:35;;;;;;;17.38;11.73;;;;;;;16.74;54.36;99944.28;5045110;28;20698;-76
2021/10/15 09:09:03;;;;;;;16.65;12.52;;;;;;;16.79;54.43;99951.84;5048775;28;20244;-77
2021/10/15 09:11:32;;;;;;;17.13;12.55;;;;;;;16.76;54.54;99941.47;5056736;28;20041;-77
2021/10/15 09:14:11;;;;;;;19.15;12.30;;;;;;;16.77;54.38;99945.81;5059566;28;20067;-73
2021/10/15 09:17:01;;;;;;;17.90;13.32;;;;;;;16.83;54.53;99947.88;5057385;28;20041;-75
2021/10/15 09:19:31;;;;;;;16.92;12.05;;;;;;;16.68;54.66;99946.78;5058852;28;20045;-78
2021/10/15 09:22:07;;;;;;;16.42;11.63;;;;;;;16.79;54.49;99951.84;5056003;28;20369;-78
2021/10/15 09:24:36;;;;;;;18.63;13.13;;;;;;;17.01;54.10;99939.78;5050088;28;20055;-74
2021/10/15 09:27:12;;;;;;;16.25;12.45;;;;;;;17.12;53.74;99947.50;5045429;28;20052;-74
2021/10/15 09:29:44;;;;;;;19.30;13.15;;;;;;;16.99;54.12;99939.13;5044562;28;20047;-79
2021/10/15 09:32:11;;;;;;;18.98;14.55;;;;;;;16.87;54.00;99935.06;5044884;28;20045;-74
2021/10/15 09:34:40;;;;;;;18.75;13.93;;;;;;;16.75;54.39;99929.16;5045675;28;20049;-74
2021/10/15 09:37:15;;;;;;;17.17;11.82;;;;;;;16.75;54.68;99929.16;5047652;28;20055;-75
2021/10/15 09:39:43;;;;;;;17.35;12.02;;;;;;;16.86;54.03;99928.06;5026888;28;20044;-73
2021/10/15 09:42:35;;;;;;;15.77;12.80;;;;;;;16.95;54.09;99922.59;5047481;28;20048;-76
2021/10/15 09:45:12;;;;;;;21.63;14.65;;;;;;;16.95;53.84;99930.59;5010490;28;20045;-76
2021/10/15 09:47:39;;;;;;;20.90;14.93;;;;;;;16.92;53.59;99920.25;5044664;28;20106;-74
2021/10/15 09:50:09;;;;;;;19.23;14.02;;;;;;;17.03;53.60;99928.97;5042833;28;20048;-76
2021/10/15 09:52:40;;;;;;;20.55;12.85;;;;;;;17.20;53.19;99917.34;5048967;28;20053;-78
2021/10/15 09:55:18;;;;;;;20.30;13.82;;;;;;;17.39;52.57;99922.41;5046712;28;20517;-74
2021/10/15 09:57:47;;;;;;;20.55;13.68;;;;;;;17.68;52.44;99917.59;5047681;28;20563;-77
2021/10/15 10:00:16;;;;;;;16.77;11.63;;;;;;;18.04;51.62;99910.13;5049368;28;20187;-76
2021/10/15 10:02:43;;;;;;;15.35;11.60;;;;;;;18.35;50.62;99904.09;5049461;28;20127;-77
2021/10/15 10:05:14;;;;;;;15.38;12.32;;;;;;;18.64;49.97;99908.00;5050106;28;20053;-77
2021/10/15 10:07:42;;;;;;;15.02;11.68;;;;;;;19.04;48.98;99911.56;5047742;28;20124;-75
2021/10/15 10:10:13;;;;;;;18.88;12.77;;;;;;;19.22;48.51;99909.44;5052114;28;20053;-73
2021/10/15 10:12:42;;;;;;;15.45;10.63;;;;;;;19.09;48.50;99902.00;5047440;28;20049;-73
2021/10/15 10:15:11;;;;;;;18.60;11.50;;;;;;;18.89;48.33;99901.59;5048172;28;20045;-79
2021/10/15 10:17:44;;;;;;;16.73;11.60;;;;;;;18.65;48.83;99907.81;5047377;28;20049;-73
2021/10/15 10:20:18;;;;;;;16.52;10.55;;;;;;;18.55;49.61;99904.53;5046616;28;20051;-71
2021/10/15 10:22:57;;;;;;;18.60;13.32;;;;;;;18.59;49.46;99902.34;5048676;28;20493;-76
2021/10/15 10:25:26;;;;;;;17.08;13.90;;;;;;;18.71;49.28;99893.78;5045918;28;20812;-73
2021/10/15 10:27:57;;;;;;;13.15;10.18;;;;;;;18.70;49.03;99894.75;5045055;28;20045;-77
2021/10/15 10:30:37;;;;;;;16.27;13.25;;;;;;;18.74;48.71;99892.56;5048018;28;20709;-78
2021/10/15 10:33:04;;;;;;;20.17;13.45;;;;;;;18.81;48.43;99890.06;5049008;28;20471;-76
2021/10/15 10:35:33;;;;;;;15.60;12.48;;;;;;;18.87;48.33;99886.69;5048654;28;20052;-75
2021/10/15 10:38:33;;;;;;;15.80;11.40;;;;;;;19.04;47.82;99882.13;5047273;28;20590;-74
2021/10/15 10:41:24;;;;;;;18.45;12.68;;;;;;;18.96;47.89;99882.16;4988298;28;20259;-77
2021/10/15 10:44:12;;;;;;;14.27;10.93;;;;;;;18.86;47.89;99877.03;4991025;28;20054;-74
2021/10/15 10:46:40;;;;;;;15.55;11.13;;;;;;;18.83;48.21;99877.34;4988923;28;20069;-76
2021/10/15 10:49:21;;;;;;;14.48;10.23;;;;;;;18.90;47.77;99879.16;4988576;28;20046;-76
2021/10/15 10:52:20;;;;;;;13.80;10.30;;;;;;;18.99;47.53;99868.44;4986043;28;20050;-74
2021/10/15 10:54:50;;;;;;;13.27;10.13;;;;;;;19.10;46.90;99868.88;4989104;28;20247;-80
2021/10/15 10:57:28;;;;;;;16.08;12.20;;;;;;;19.26;46.78;99862.56;4983580;28;20045;-71
2021/10/15 11:00:24;;;;;;;13.95;9.50;;;;;;;19.38;46.72;99870.22;4983928;28;20414;-76
2021/10/15 11:02:56;;;;;;;13.35;9.07;;;;;;;19.45;46.54;99868.47;4991375;28;20049;-81
2021/10/15 11:05:34;;;;;;;12.73;10.07;;;;;;;19.37;46.49;99860.50;4993877;28;20054;-80
2021/10/15 11:08:36;;;;;;;14.32;10.95;;;;;;;19.34;46.62;99856.34;4977430;28;20053;-77
2021/10/15 11:11:41;;;;;;;15.80;10.77;;;;;;;19.23;46.79;99849.56;4969210;28;20408;-75
2021/10/15 11:14:08;;;;;;;12.88;10.00;;;;;;;19.02;46.96;99850.19;5046926;28;20052;-78
2021/10/15 11:16:35;;;;;;;14.85;9.85;;;;;;;18.77;47.26;99845.94;5035774;28;20233;-75
2021/10/15 11:19:02;;;;;;;12.75;10.25;;;;;;;18.59;47.53;99851.53;5049031;28;20382;-72
2021/10/15 11:21:29;;;;;;;13.23;9.68;;;;;;;18.50;47.49;99848.03;5047938;28;20061;-76
2021/10/15 11:24:11;;;;;;;12.00;8.02;;;;;;;18.45;47.50;99840.53;5041075;28;20532;-73
2021/10/15 11:26:38;;;;;;;14.40;10.18;;;;;;;18.56;47.16;99835.81;5041588;28;20040;-73
2021/10/15 11:29:05;;;;;;;15.15;10.38;;;;;;;18.49;47.25;99843.69;5042419;28;20048;-72
2021/10/15 11:31:32;;;;;;;15.95;10.90;;;;;;;18.39;47.57;99837.72;5042821;28;20041;-73
2021/10/15 11:34:09;;;;;;;15.18;10.38;;;;;;;18.48;47.61;99831.34;5043035;28;20041;-77